createdAt,value
2018-09-15T00:00:48.658Z,16.10
2018-09-15T00:03:17.019Z,15.90
2018-09-15T00:05:45.394Z,15.90
2018-09-15T00:08:14.154Z,15.80
2018-09-15T00:10:42.743Z,15.80
2018-09-15T00:13:11.717Z,15.80
2018-09-15T00:15:40.354Z,15.90
2018-09-15T00:18:11.969Z,15.90
2018-09-15T00:20:40.972Z,16.00
2018-09-15T00:23:10.927Z,16.10
2018-09-15T00:25:40.014Z,16.10
2018-09-15T00:28:09.307Z,16.20
2018-09-15T00:30:38.379Z,16.20
2018-09-15T00:33:06.780Z,16.20
2018-09-15T00:35:35.986Z,16.30
2018-09-15T00:38:04.387Z,16.30
2018-09-15T00:40:32.797Z,16.30
2018-09-15T00:43:01.200Z,16.40
2018-09-15T00:45:29.966Z,16.30
2018-09-15T00:47:58.575Z,16.40
2018-09-15T00:50:26.966Z,16.40
2018-09-15T00:52:55.656Z,16.40
2018-09-15T00:55:24.351Z,16.40
2018-09-15T00:57:52.790Z,16.40
2018-09-15T01:00:22.030Z,16.40
2018-09-15T01:02:50.661Z,16.30
2018-09-15T01:05:19.038Z,16.30
2018-09-15T01:07:47.750Z,16.30
2018-09-15T01:10:16.214Z,16.30
2018-09-15T01:12:44.599Z,16.30
2018-09-15T01:15:13.285Z,16.30
2018-09-15T01:17:42.190Z,16.30
2018-09-15T01:20:10.938Z,16.30
2018-09-15T01:22:40.143Z,16.30
2018-09-15T01:25:08.538Z,16.40
2018-09-15T01:27:37.211Z,16.40
2018-09-15T01:30:05.775Z,16.40
2018-09-15T01:32:34.146Z,16.40
2018-09-15T01:35:02.530Z,16.40
2018-09-15T01:37:30.903Z,16.40
2018-09-15T01:39:59.510Z,16.50
2018-09-15T01:42:27.902Z,16.50
2018-09-15T01:44:56.530Z,16.50
2018-09-15T01:47:24.911Z,16.50
2018-09-15T01:49:53.627Z,16.50
2018-09-15T01:52:22.023Z,16.60
2018-09-15T01:54:50.378Z,16.60
2018-09-15T01:57:18.759Z,16.60
2018-09-15T01:59:47.387Z,16.60
2018-09-15T02:02:16.270Z,16.60
2018-09-15T02:04:45.262Z,16.50
2018-09-15T02:07:13.630Z,16.50
2018-09-15T02:09:41.994Z,16.60
2018-09-15T02:12:10.369Z,16.60
2018-09-15T02:14:39.085Z,16.60
2018-09-15T02:17:08.050Z,16.70
2018-09-15T02:19:36.735Z,16.70
2018-09-15T02:22:05.833Z,16.70
2018-09-15T02:24:34.471Z,16.70
2018-09-15T02:27:03.202Z,16.60
2018-09-15T02:29:31.591Z,16.60
2018-09-15T02:31:59.956Z,16.60
2018-09-15T02:34:28.691Z,16.60
2018-09-15T02:36:57.671Z,16.50
2018-09-15T02:39:26.027Z,16.50
2018-09-15T02:41:54.418Z,16.40
2018-09-15T02:44:22.768Z,16.40
2018-09-15T02:46:51.139Z,16.40
2018-09-15T02:49:19.506Z,16.30
2018-09-15T02:51:48.158Z,16.30
2018-09-15T02:54:16.799Z,16.20
2018-09-15T02:56:45.262Z,16.10
2018-09-15T02:59:13.959Z,16.10
2018-09-15T03:01:42.553Z,16.10
2018-09-15T03:04:10.928Z,16.00
2018-09-15T03:06:40.228Z,15.90
2018-09-15T03:09:10.186Z,15.80
2018-09-15T03:11:38.647Z,15.80
2018-09-15T03:14:07.302Z,15.90
2018-09-15T03:16:36.138Z,15.90
2018-09-15T03:19:04.849Z,15.90
2018-09-15T03:21:33.256Z,15.90
2018-09-15T03:24:01.636Z,15.90
2018-09-15T03:26:30.336Z,16.00
2018-09-15T03:28:59.212Z,16.00
2018-09-15T03:31:28.050Z,16.00
2018-09-15T03:33:56.445Z,16.00
2018-09-15T03:36:24.826Z,16.00
2018-09-15T03:38:54.205Z,15.90
2018-09-15T03:41:23.210Z,15.80
2018-09-15T03:43:51.535Z,15.80
2018-09-15T03:46:20.215Z,15.70
2018-09-15T03:48:49.239Z,15.70
2018-09-15T03:51:17.954Z,15.70
2018-09-15T03:53:47.218Z,15.70
2018-09-15T03:56:15.575Z,15.70
2018-09-15T03:58:43.999Z,15.60
2018-09-15T04:01:12.657Z,15.70
2018-09-15T04:03:41.342Z,15.70
2018-09-15T04:06:10.026Z,15.70
2018-09-15T04:08:38.426Z,15.70
2018-09-15T04:11:06.922Z,15.70
2018-09-15T04:13:35.575Z,15.70
2018-09-15T04:16:03.958Z,15.60
2018-09-15T04:18:32.610Z,15.70
2018-09-15T04:21:01.623Z,15.60
2018-09-15T04:23:30.346Z,15.60
2018-09-15T04:25:58.726Z,15.60
2018-09-15T04:28:27.494Z,15.60
2018-09-15T04:30:55.845Z,15.60
2018-09-15T04:33:24.215Z,15.60
2018-09-15T04:35:52.571Z,15.60
2018-09-15T04:38:20.927Z,15.60
2018-09-15T04:40:49.283Z,15.60
2018-09-15T04:43:17.638Z,15.60
2018-09-15T04:45:46.755Z,15.60
2018-09-15T04:48:15.119Z,15.60
2018-09-15T04:50:43.798Z,15.60
2018-09-15T04:53:12.442Z,15.50
2018-09-15T04:55:41.074Z,15.60
2018-09-15T04:58:09.757Z,15.50
2018-09-15T05:00:38.443Z,15.50
2018-09-15T05:03:06.880Z,15.50
2018-09-15T05:05:35.530Z,15.50
2018-09-15T05:08:04.186Z,15.50
2018-09-15T05:10:32.540Z,15.40
2018-09-15T05:13:01.251Z,15.40
2018-09-15T05:15:29.599Z,15.40
2018-09-15T05:17:58.297Z,15.30
2018-09-15T05:20:26.862Z,15.30
2018-09-15T05:22:55.832Z,15.30
2018-09-15T05:25:24.523Z,15.30
2018-09-15T05:27:53.602Z,15.20
2018-09-15T05:30:23.155Z,15.20
2018-09-15T05:32:51.770Z,15.20
2018-09-15T05:35:20.146Z,15.30
2018-09-15T05:37:49.214Z,15.30
2018-09-15T05:40:17.562Z,15.40
2018-09-15T05:42:45.906Z,15.40
2018-09-15T05:45:14.258Z,15.40
2018-09-15T05:47:42.696Z,15.50
2018-09-15T05:50:11.314Z,15.50
2018-09-15T05:52:39.695Z,15.50
2018-09-15T05:55:08.406Z,15.70
2018-09-15T05:57:37.091Z,15.80
2018-09-15T06:00:05.966Z,15.80
2018-09-15T06:02:34.326Z,15.90
2018-09-15T06:05:03.003Z,16.10
2018-09-15T06:07:31.418Z,16.30
2018-09-15T06:10:00.327Z,16.30
2018-09-15T06:12:29.011Z,16.50
2018-09-15T06:14:57.386Z,16.70
2018-09-15T06:17:25.729Z,16.90
2018-09-15T06:27:19.750Z,18.10
2018-09-15T06:29:48.636Z,18.30
2018-09-15T06:32:16.994Z,18.50
2018-09-15T06:34:45.386Z,18.80
2018-09-15T06:37:13.786Z,19.30
2018-09-15T06:39:42.166Z,19.50
2018-09-15T06:42:11.346Z,20.10
2018-09-15T06:44:39.722Z,20.30
2018-09-15T06:49:36.382Z,21.20
2018-09-15T06:52:05.299Z,21.10
2018-09-15T06:54:33.846Z,20.40
2018-09-15T06:57:02.213Z,20.00
2018-09-15T06:59:31.376Z,20.20
2018-09-15T07:01:59.743Z,20.40
2018-09-15T07:04:28.350Z,20.60
2018-09-15T07:06:56.768Z,21.00
2018-09-15T07:09:25.399Z,21.20
2018-09-15T07:11:54.048Z,21.20
2018-09-15T07:14:22.766Z,21.30
2018-09-15T07:16:51.730Z,21.30
2018-09-15T07:19:20.421Z,21.20
2018-09-15T07:21:48.784Z,21.40
2018-09-15T07:24:17.470Z,21.80
2018-09-15T07:26:46.879Z,22.00
2018-09-15T07:29:15.574Z,22.00
2018-09-15T07:31:44.452Z,22.20
2018-09-15T07:34:12.832Z,21.90
2018-09-15T07:36:41.222Z,22.20
2018-09-15T07:39:11.123Z,22.60
2018-09-15T07:41:40.026Z,22.60
2018-09-15T07:44:08.455Z,22.30
2018-09-15T07:46:36.806Z,22.30
2018-09-15T07:49:05.857Z,22.70
2018-09-15T07:51:34.357Z,21.90
2018-09-15T07:54:02.919Z,22.10
2018-09-15T07:56:31.274Z,22.20
2018-09-15T07:58:59.651Z,22.60
2018-09-15T08:01:27.992Z,22.20
2018-09-15T08:03:56.403Z,22.60
2018-09-15T08:06:24.779Z,22.70
2018-09-15T08:08:53.154Z,23.00
2018-09-15T08:11:22.122Z,22.40
2018-09-15T08:13:50.509Z,21.00
2018-09-15T08:16:19.138Z,20.90
2018-09-15T08:18:48.046Z,21.60
2018-09-15T08:21:16.923Z,22.10
2018-09-15T08:23:45.810Z,22.70
2018-09-15T08:26:14.440Z,21.90
2018-09-15T08:28:43.302Z,22.30
2018-09-15T08:31:11.966Z,23.20
2018-09-15T08:33:40.332Z,23.80
2018-09-15T08:36:09.746Z,23.50
2018-09-15T08:38:38.735Z,23.70
2018-09-15T08:41:07.207Z,23.40
2018-09-15T08:43:35.623Z,23.80
2018-09-15T08:46:04.284Z,23.40
2018-09-15T08:48:32.667Z,23.50
2018-09-15T08:51:01.347Z,23.70
2018-09-15T08:53:29.714Z,24.00
2018-09-15T08:55:58.410Z,24.60
2018-09-15T08:58:26.785Z,24.10
2018-09-15T09:00:55.399Z,24.20
2018-09-15T09:05:52.338Z,25.10
2018-09-15T09:08:20.698Z,25.80
2018-09-15T09:10:49.155Z,25.20
2018-09-15T09:13:18.083Z,25.20
2018-09-15T09:15:46.458Z,24.60
2018-09-15T09:18:15.100Z,24.60
2018-09-15T09:20:44.053Z,25.00
2018-09-15T09:23:12.727Z,25.40
2018-09-15T09:25:41.098Z,25.40
2018-09-15T09:28:09.727Z,25.00
2018-09-15T09:33:06.537Z,25.70
2018-09-15T09:35:34.874Z,25.90
2018-09-15T09:38:03.823Z,26.40
2018-09-15T09:40:32.802Z,26.20
2018-09-15T09:43:01.512Z,26.30
2018-09-15T09:45:29.851Z,26.50
2018-09-15T09:47:58.458Z,26.70
2018-09-15T09:50:27.447Z,26.90
2018-09-15T09:52:55.820Z,26.90
2018-09-15T09:55:24.611Z,27.20
2018-09-15T09:57:53.293Z,27.60
2018-09-15T10:00:27.005Z,27.50
2018-09-15T10:02:55.380Z,27.70
2018-09-15T10:05:23.751Z,27.40
2018-09-15T10:07:52.376Z,27.10
2018-09-15T10:10:21.020Z,27.10
2018-09-15T10:12:50.015Z,26.80
2018-09-15T10:15:18.723Z,26.90
2018-09-15T10:17:47.234Z,26.50
2018-09-15T10:20:16.339Z,26.40
2018-09-15T10:22:44.739Z,26.20
2018-09-15T10:25:13.121Z,26.40
2018-09-15T10:27:41.492Z,26.30
2018-09-15T10:30:10.343Z,26.50
2018-09-15T10:32:38.818Z,26.60
2018-09-15T10:35:07.519Z,26.80
2018-09-15T10:37:35.875Z,26.90
2018-09-15T10:40:04.306Z,26.60
2018-09-15T10:42:32.661Z,26.50
2018-09-15T10:45:01.053Z,26.40
2018-09-15T10:47:29.810Z,26.10
2018-09-15T10:49:58.563Z,25.50
2018-09-15T10:52:27.729Z,25.30
2018-09-15T10:54:56.095Z,25.00
2018-09-15T10:57:24.483Z,24.60
2018-09-15T10:59:53.093Z,24.60
2018-09-15T11:02:21.734Z,24.10
2018-09-15T11:04:50.114Z,23.90
2018-09-15T11:07:19.720Z,24.70
2018-09-15T11:09:48.343Z,25.10
2018-09-15T11:12:16.706Z,25.50
2018-09-15T11:14:45.307Z,25.30
2018-09-15T11:17:13.694Z,24.70
2018-09-15T11:19:42.060Z,24.70
2018-09-15T11:22:10.410Z,24.80
2018-09-15T11:24:39.706Z,25.10
2018-09-15T11:27:08.639Z,25.30
2018-09-15T11:29:37.256Z,25.90
2018-09-15T11:32:05.674Z,25.90
2018-09-15T11:34:34.074Z,26.40
2018-09-15T11:37:02.467Z,26.90
2018-09-15T11:39:31.159Z,27.30
2018-09-15T11:41:59.514Z,27.40
2018-09-15T11:44:28.076Z,27.80
2018-09-15T11:46:56.947Z,27.90
2018-09-15T11:49:26.255Z,27.50
2018-09-15T11:51:55.388Z,27.90
2018-09-15T11:54:23.820Z,28.90
2018-09-15T11:59:20.290Z,29.80
2018-09-15T12:01:49.221Z,29.30
2018-09-15T12:04:17.571Z,29.80
2018-09-15T12:06:46.475Z,29.40
2018-09-15T12:09:14.850Z,29.00
2018-09-15T12:11:43.771Z,28.50
2018-09-15T12:14:12.219Z,28.30
2018-09-15T12:16:40.870Z,28.10
2018-09-15T12:19:09.594Z,27.70
2018-09-15T12:21:38.223Z,27.30
2018-09-15T12:24:06.590Z,27.60
2018-09-15T12:26:35.250Z,28.10
2018-09-15T12:29:04.231Z,28.60
2018-09-15T12:31:34.350Z,29.10
2018-09-15T12:34:02.719Z,28.00
2018-09-15T12:36:31.614Z,28.90
2018-09-15T12:39:00.526Z,28.80
2018-09-15T12:41:29.395Z,29.20
2018-09-15T12:43:57.851Z,29.90
2018-09-15T12:46:26.814Z,29.30
2018-09-15T12:48:55.166Z,29.40
2018-09-15T12:51:23.779Z,30.00
2018-09-15T12:53:52.162Z,30.80
2018-09-15T12:56:21.302Z,31.40
2018-09-15T12:58:49.766Z,31.50
2018-09-15T13:01:18.147Z,30.80
2018-09-15T13:03:46.855Z,31.20
2018-09-15T13:06:15.259Z,30.90
2018-09-15T13:08:43.714Z,30.50
2018-09-15T13:11:12.107Z,29.80
2018-09-15T13:13:40.990Z,29.80
2018-09-15T13:16:09.387Z,29.40
2018-09-15T13:18:38.294Z,29.50
2018-09-15T13:21:06.707Z,29.30
2018-09-15T13:23:35.732Z,29.20
2018-09-15T13:26:04.099Z,29.10
2018-09-15T13:28:32.494Z,28.90
2018-09-15T13:31:00.875Z,28.40
2018-09-15T13:33:29.511Z,27.80
2018-09-15T13:35:58.378Z,27.80
2018-09-15T13:38:26.763Z,27.60
2018-09-15T13:40:55.819Z,27.30
2018-09-15T13:43:25.159Z,26.20
2018-09-15T13:45:53.539Z,26.10
2018-09-15T13:48:21.886Z,25.90
2018-09-15T13:50:50.250Z,25.60
2018-09-15T13:53:18.947Z,25.30
2018-09-15T13:55:47.542Z,25.00
2018-09-15T13:58:16.174Z,24.90
2018-09-15T14:00:44.772Z,24.80
2018-09-15T14:03:13.142Z,24.90
2018-09-15T14:05:41.514Z,24.90
2018-09-15T14:08:09.897Z,24.60
2018-09-15T14:10:38.888Z,24.50
2018-09-15T14:13:07.214Z,24.00
2018-09-15T14:15:35.653Z,23.30
2018-09-15T14:18:04.458Z,23.30
2018-09-15T14:20:33.432Z,23.50
2018-09-15T14:23:01.838Z,23.80
2018-09-15T14:25:30.704Z,23.90
2018-09-15T14:27:59.283Z,23.90
2018-09-15T14:30:27.686Z,23.80
2018-09-15T14:32:56.041Z,23.80
2018-09-15T14:35:24.419Z,23.80
2018-09-15T14:37:53.106Z,23.80
2018-09-15T14:40:21.563Z,23.80
2018-09-15T14:42:50.475Z,23.60
2018-09-15T14:45:18.862Z,23.40
2018-09-15T14:47:47.547Z,23.40
2018-09-15T14:50:16.264Z,23.00
2018-09-15T14:52:44.980Z,22.90
2018-09-15T14:55:13.435Z,23.00
2018-09-15T14:57:41.750Z,22.90
2018-09-15T15:00:10.384Z,22.90
2018-09-15T15:02:39.158Z,22.90
2018-09-15T15:05:07.612Z,22.80
2018-09-15T15:07:36.007Z,22.70
2018-09-15T15:10:04.690Z,22.70
2018-09-15T15:12:33.371Z,22.80
2018-09-15T15:15:01.802Z,22.70
2018-09-15T15:17:30.158Z,22.70
2018-09-15T15:19:59.325Z,22.70
2018-09-15T15:22:28.130Z,22.70
2018-09-15T15:24:56.488Z,22.70
2018-09-15T15:27:25.174Z,22.50
2018-09-15T15:29:53.563Z,22.20
2018-09-15T15:32:21.936Z,22.30
2018-09-15T15:34:50.783Z,22.20
2018-09-15T15:37:19.564Z,22.30
2018-09-15T15:39:48.334Z,22.20
2018-09-15T15:42:17.679Z,22.10
2018-09-15T15:44:46.067Z,22.10
2018-09-15T15:47:14.434Z,22.00
2018-09-15T15:49:42.844Z,22.00
2018-09-15T15:52:11.318Z,22.10
2018-09-15T15:54:39.955Z,21.90
2018-09-15T15:57:08.585Z,21.90
2018-09-15T15:59:36.975Z,21.90
2018-09-15T16:02:05.387Z,21.80
2018-09-15T16:04:33.821Z,21.80
2018-09-15T16:07:02.145Z,21.80
2018-09-15T16:09:30.775Z,21.80
2018-09-15T16:11:59.423Z,21.70
2018-09-15T16:14:27.979Z,21.50
2018-09-15T16:16:56.654Z,21.60
2018-09-15T16:19:25.011Z,21.50
2018-09-15T16:21:53.494Z,21.50
2018-09-15T16:24:22.198Z,21.30
2018-09-15T16:26:50.859Z,21.20
2018-09-15T16:29:19.491Z,21.20
2018-09-15T16:31:47.854Z,21.20
2018-09-15T16:34:16.261Z,21.10
2018-09-15T16:36:46.095Z,21.00
2018-09-15T16:39:14.442Z,21.00
2018-09-15T16:41:42.846Z,20.90
2018-09-15T16:44:11.238Z,20.90
2018-09-15T16:46:39.609Z,20.80
2018-09-15T16:49:08.350Z,20.70
2018-09-15T16:51:37.199Z,20.60
2018-09-15T16:54:06.414Z,20.50
2018-09-15T16:56:35.302Z,20.40
2018-09-15T16:59:03.944Z,20.30
2018-09-15T17:01:32.308Z,20.20
2018-09-15T17:04:00.671Z,20.10
2018-09-15T17:06:29.079Z,20.10
2018-09-15T17:08:57.475Z,19.90
2018-09-15T17:11:26.827Z,19.80
2018-09-15T17:13:55.211Z,19.70
2018-09-15T17:16:24.166Z,19.60
2018-09-15T17:18:52.897Z,19.50
2018-09-15T17:21:21.289Z,19.40
2018-09-15T17:23:50.210Z,19.30
2018-09-15T17:26:19.189Z,19.20
2018-09-15T17:28:47.893Z,19.10
2018-09-15T17:31:16.582Z,19.00
2018-09-15T17:33:45.218Z,18.90
2018-09-15T17:36:13.618Z,18.80
2018-09-15T17:38:42.331Z,18.70
2018-09-15T17:41:10.691Z,18.50
2018-09-15T17:43:39.062Z,18.40
2018-09-15T17:46:07.469Z,18.30
2018-09-15T17:48:36.110Z,18.20
2018-09-15T17:51:05.166Z,18.10
2018-09-15T17:53:33.551Z,18.00
2018-09-15T17:56:02.275Z,17.90
2018-09-15T17:58:30.971Z,17.90
2018-09-15T18:00:59.360Z,17.70
2018-09-15T18:03:28.092Z,17.60
2018-09-15T18:05:57.228Z,17.40
2018-09-15T18:08:25.580Z,17.30
2018-09-15T18:10:53.971Z,17.30
2018-09-15T18:13:23.295Z,17.20
2018-09-15T18:15:51.683Z,17.20
2018-09-15T18:18:20.082Z,17.10
2018-09-15T18:20:48.455Z,17.10
2018-09-15T18:23:16.820Z,17.00
2018-09-15T18:25:45.460Z,16.90
2018-09-15T18:28:13.917Z,16.80
2018-09-15T18:30:42.271Z,16.70
2018-09-15T18:33:10.632Z,16.60
2018-09-15T18:35:39.023Z,16.40
2018-09-15T18:38:07.702Z,16.30
2018-09-15T18:40:36.695Z,16.10
2018-09-15T18:43:05.589Z,16.00
2018-09-15T18:45:34.195Z,15.90
2018-09-15T18:48:02.750Z,15.80
2018-09-15T18:50:31.485Z,15.70
2018-09-15T18:53:00.438Z,15.70
2018-09-15T18:55:28.799Z,15.60
2018-09-15T18:57:58.098Z,15.50
2018-09-15T19:00:27.365Z,15.40
2018-09-15T19:02:56.447Z,15.40
2018-09-15T19:05:25.395Z,15.20
2018-09-15T19:07:54.310Z,15.10
2018-09-15T19:12:51.066Z,14.90
2018-09-15T19:15:19.417Z,14.90
2018-09-15T19:17:47.801Z,14.70
2018-09-15T19:20:17.054Z,14.40
2018-09-15T19:22:47.319Z,14.40
2018-09-15T19:25:15.688Z,14.50
2018-09-15T19:27:44.067Z,14.40
2018-09-15T19:30:12.431Z,14.40
2018-09-15T19:32:41.050Z,14.40
2018-09-15T19:35:09.443Z,14.30
2018-09-15T19:37:38.079Z,14.30
2018-09-15T19:40:06.611Z,14.30
2018-09-15T19:42:35.734Z,14.20
2018-09-15T19:45:04.381Z,14.20
2018-09-15T19:47:33.967Z,14.10
2018-09-15T19:50:02.367Z,14.10
2018-09-15T19:52:30.738Z,14.00
2018-09-15T19:54:59.115Z,13.90
2018-09-15T19:59:56.082Z,13.60
2018-09-15T20:02:24.691Z,13.40
2018-09-15T20:04:53.092Z,13.40
2018-09-15T20:07:21.746Z,13.40
2018-09-15T20:09:50.139Z,13.50
2018-09-15T20:12:18.819Z,13.50
2018-09-15T20:14:47.167Z,13.50
2018-09-15T20:17:14.719Z,13.40
2018-09-15T20:19:42.006Z,13.40
2018-09-15T20:22:10.390Z,13.30
2018-09-15T20:24:39.763Z,13.30
2018-09-15T20:27:08.147Z,13.20
2018-09-15T20:29:37.110Z,13.30
2018-09-15T20:32:05.484Z,13.20
2018-09-15T20:34:33.891Z,13.20
2018-09-15T20:37:02.243Z,13.20
2018-09-15T20:39:30.607Z,13.10
2018-09-15T20:41:58.975Z,13.00
2018-09-15T20:44:27.323Z,12.70
2018-09-15T20:46:55.706Z,12.60
2018-09-15T20:49:24.092Z,12.60
2018-09-15T20:51:52.451Z,12.60
2018-09-15T20:54:21.419Z,12.50
2018-09-15T20:56:50.397Z,12.40
2018-09-15T20:59:18.750Z,12.50
2018-09-15T21:01:47.126Z,12.50
2018-09-15T21:04:15.773Z,12.50
2018-09-15T21:06:44.375Z,12.40
2018-09-15T21:09:13.002Z,12.40
2018-09-15T21:11:41.387Z,12.40
2018-09-15T21:14:10.112Z,12.40
2018-09-15T21:16:38.545Z,12.30
2018-09-15T21:19:06.930Z,12.30
2018-09-15T21:21:35.674Z,12.20
2018-09-15T21:24:04.080Z,12.20
2018-09-15T21:26:33.304Z,12.20
2018-09-15T21:29:02.722Z,12.10
2018-09-15T21:31:31.133Z,12.00
2018-09-15T21:33:59.826Z,12.00
2018-09-15T21:36:28.447Z,11.90
2018-09-15T21:38:57.126Z,11.90
2018-09-15T21:41:25.514Z,11.80
2018-09-15T21:43:53.900Z,11.80
2018-09-15T21:46:22.270Z,11.70
2018-09-15T21:48:51.254Z,11.70
2018-09-15T21:51:19.595Z,11.70
2018-09-15T21:53:48.453Z,11.70
2018-09-15T21:56:16.856Z,11.60
2018-09-15T21:58:45.486Z,11.50
2018-09-15T22:01:13.838Z,11.50
2018-09-15T22:03:47.792Z,11.40
2018-09-15T22:06:16.409Z,11.30
2018-09-15T22:08:45.043Z,11.30
2018-09-15T22:11:13.432Z,11.30
2018-09-15T22:13:42.058Z,11.30
2018-09-15T22:16:10.703Z,11.30
2018-09-15T22:18:39.111Z,11.20
2018-09-15T22:21:07.503Z,11.20
2018-09-15T22:23:36.154Z,11.10
2018-09-15T22:26:04.555Z,11.00
2018-09-15T22:28:33.346Z,11.00
2018-09-15T22:31:01.900Z,11.00
2018-09-15T22:33:30.296Z,11.00
2018-09-15T22:35:59.254Z,11.00
2018-09-15T22:38:27.935Z,11.00
2018-09-15T22:40:56.923Z,11.00
2018-09-15T22:43:25.336Z,11.00
2018-09-15T22:45:53.707Z,11.00
2018-09-15T22:48:22.435Z,10.90
2018-09-15T22:50:51.006Z,10.90
2018-09-15T22:53:19.375Z,11.00
2018-09-15T22:55:47.759Z,11.00
2018-09-15T22:58:16.107Z,10.90
2018-09-15T23:00:44.478Z,10.90
2018-09-15T23:03:12.866Z,10.90
2018-09-15T23:05:41.837Z,10.90
2018-09-15T23:08:10.582Z,10.80
2018-09-15T23:10:39.191Z,10.80
2018-09-15T23:13:07.546Z,10.70
2018-09-15T23:15:35.882Z,10.70
2018-09-15T23:18:04.527Z,10.60
2018-09-15T23:20:33.190Z,10.60
2018-09-15T23:23:01.730Z,10.60
2018-09-15T23:25:30.326Z,10.50
2018-09-15T23:27:58.678Z,10.60
2018-09-15T23:30:27.457Z,10.50
2018-09-15T23:32:56.083Z,10.50
2018-09-15T23:35:24.435Z,10.50
2018-09-15T23:37:52.799Z,10.50
2018-09-15T23:40:21.297Z,10.50
2018-09-15T23:42:49.659Z,10.50
2018-09-15T23:45:18.650Z,10.50
2018-09-15T23:47:47.042Z,10.50
2018-09-15T23:50:15.610Z,10.50
2018-09-15T23:52:44.507Z,10.50
2018-09-15T23:55:13.231Z,10.50
2018-09-15T23:57:42.059Z,10.50
